createdAt,value
2023-01-22T00:01:03.577Z,3.11
2023-01-22T00:03:30.398Z,3.13
2023-01-22T00:05:57.229Z,3.16
2023-01-22T00:08:24.067Z,3.19
2023-01-22T00:10:55.223Z,3.23
2023-01-22T00:13:24.252Z,3.25
2023-01-22T00:15:51.283Z,3.28
2023-01-22T00:18:19.204Z,3.34
2023-01-22T00:20:50.682Z,3.32
2023-01-22T00:23:17.707Z,3.22
2023-01-22T00:25:44.925Z,3.17
2023-01-22T00:28:12.818Z,3.17
2023-01-22T00:30:40.228Z,3.22
2023-01-22T00:33:07.169Z,3.26
2023-01-22T00:35:35.634Z,3.29
2023-01-22T00:38:02.418Z,3.26
2023-01-22T00:40:29.355Z,3.14
2023-01-22T00:42:56.067Z,3.07
2023-01-22T00:45:22.788Z,3.10
2023-01-22T00:47:49.530Z,3.14
2023-01-22T00:50:16.889Z,3.08
2023-01-22T00:52:45.197Z,3.09
2023-01-22T00:55:12.615Z,3.11
2023-01-22T00:57:39.393Z,3.10
2023-01-22T01:00:06.792Z,3.14
2023-01-22T01:02:33.552Z,3.19
2023-01-22T01:05:01.980Z,3.18
2023-01-22T01:07:29.684Z,3.15
2023-01-22T01:09:56.664Z,3.07
2023-01-22T01:12:23.404Z,3.12
2023-01-22T01:14:51.174Z,3.21
2023-01-22T01:17:17.863Z,3.20
2023-01-22T01:19:44.634Z,3.16
2023-01-22T01:22:11.805Z,3.16
2023-01-22T01:24:39.213Z,3.19
2023-01-22T01:27:06.651Z,3.22
2023-01-22T01:29:33.389Z,3.31
2023-01-22T01:32:00.126Z,3.34
2023-01-22T01:34:26.929Z,3.32
2023-01-22T01:36:53.650Z,3.32
2023-01-22T01:39:20.517Z,3.31
2023-01-22T01:41:47.256Z,3.33
2023-01-22T01:44:15.628Z,3.32
2023-01-22T01:46:50.558Z,3.21
2023-01-22T01:49:26.761Z,3.17
2023-01-22T01:51:56.508Z,3.01
2023-01-22T01:54:23.359Z,3.03
2023-01-22T01:56:54.671Z,2.98
2023-01-22T01:59:25.442Z,3.01
2023-01-22T02:01:55.767Z,2.90
2023-01-22T02:04:23.572Z,2.80
2023-01-22T02:06:50.356Z,2.76
2023-01-22T02:09:17.349Z,2.75
2023-01-22T02:11:44.514Z,2.67
2023-01-22T02:14:20.144Z,2.63
2023-01-22T02:16:47.101Z,2.66
2023-01-22T02:19:13.911Z,2.52
2023-01-22T02:21:43.267Z,2.63
2023-01-22T02:24:11.759Z,2.59
2023-01-22T02:26:40.581Z,2.61
2023-01-22T02:29:09.696Z,2.65
2023-01-22T02:31:40.996Z,2.48
2023-01-22T02:34:08.917Z,2.40
2023-01-22T02:36:38.163Z,2.34
2023-01-22T02:39:05.421Z,2.52
2023-01-22T02:41:32.468Z,2.38
2023-01-22T02:44:00.378Z,2.42
2023-01-22T02:46:27.953Z,2.43
2023-01-22T02:48:54.774Z,2.40
2023-01-22T02:51:21.887Z,2.27
2023-01-22T02:53:52.228Z,2.36
2023-01-22T02:56:19.886Z,2.25
2023-01-22T02:58:46.769Z,2.33
2023-01-22T03:01:20.813Z,2.37
2023-01-22T03:03:52.234Z,2.40
2023-01-22T03:06:23.918Z,2.44
2023-01-22T03:08:57.466Z,2.55
2023-01-22T03:11:26.169Z,2.63
2023-01-22T03:14:14.660Z,2.65
2023-01-22T03:17:02.163Z,2.68
2023-01-22T03:19:48.546Z,2.71
2023-01-22T03:22:19.488Z,2.69
2023-01-22T03:24:52.075Z,2.68
2023-01-22T03:27:24.064Z,2.58
2023-01-22T03:29:51.005Z,2.53
2023-01-22T03:32:20.619Z,2.64
2023-01-22T03:34:48.697Z,2.49
2023-01-22T03:37:15.719Z,2.47
2023-01-22T03:39:44.705Z,2.39
2023-01-22T03:42:18.690Z,2.43
2023-01-22T03:44:45.529Z,2.45
2023-01-22T03:47:13.550Z,2.52
2023-01-22T03:49:41.804Z,2.53
2023-01-22T03:52:10.006Z,2.45
2023-01-22T03:54:38.546Z,2.39
2023-01-22T03:57:07.204Z,2.43
2023-01-22T03:59:37.264Z,2.47
2023-01-22T04:02:04.045Z,2.39
2023-01-22T04:04:35.015Z,2.34
2023-01-22T04:07:02.429Z,2.37
2023-01-22T04:09:29.143Z,2.35
2023-01-22T04:11:57.319Z,2.45
2023-01-22T04:14:24.048Z,2.40
2023-01-22T04:16:57.406Z,2.41
2023-01-22T04:19:42.713Z,2.44
2023-01-22T04:22:20.079Z,2.47
2023-01-22T04:24:49.321Z,2.49
2023-01-22T04:27:16.267Z,2.47
2023-01-22T04:29:43.114Z,2.58
2023-01-22T04:32:10.425Z,2.47
2023-01-22T04:34:57.520Z,2.40
2023-01-22T04:37:33.954Z,2.13
2023-01-22T04:40:00.670Z,2.21
2023-01-22T04:42:27.509Z,2.17
2023-01-22T04:44:54.484Z,2.05
2023-01-22T04:47:21.557Z,2.20
2023-01-22T04:49:48.264Z,1.90
2023-01-22T04:52:16.269Z,1.86
2023-01-22T04:54:43.963Z,1.84
2023-01-22T04:57:11.522Z,1.76
2023-01-22T04:59:38.305Z,1.78
2023-01-22T05:02:05.797Z,1.77
2023-01-22T05:04:32.936Z,1.88
2023-01-22T05:06:59.713Z,1.92
2023-01-22T05:09:27.056Z,1.91
2023-01-22T05:11:58.145Z,1.98
2023-01-22T05:14:26.197Z,2.04
2023-01-22T05:16:54.123Z,2.14
2023-01-22T05:19:20.850Z,2.21
2023-01-22T05:21:48.260Z,2.30
2023-01-22T05:24:18.605Z,2.09
2023-01-22T05:26:46.040Z,2.04
2023-01-22T05:29:29.320Z,1.84
2023-01-22T05:32:25.255Z,2.13
2023-01-22T05:34:54.996Z,2.27
2023-01-22T05:37:21.790Z,2.29
2023-01-22T05:39:50.954Z,2.30
2023-01-22T05:42:18.264Z,2.28
2023-01-22T05:44:50.459Z,2.25
2023-01-22T05:47:20.822Z,2.27
2023-01-22T05:50:01.967Z,2.19
2023-01-22T05:52:29.594Z,2.13
2023-01-22T05:54:56.528Z,1.97
2023-01-22T05:57:23.224Z,1.93
2023-01-22T05:59:50.021Z,1.96
2023-01-22T06:02:16.858Z,1.94
2023-01-22T06:04:44.807Z,1.85
2023-01-22T06:07:22.581Z,1.82
2023-01-22T06:09:49.312Z,1.85
2023-01-22T06:12:18.529Z,1.76
2023-01-22T06:14:46.488Z,1.63
2023-01-22T06:17:13.482Z,1.47
2023-01-22T06:19:46.438Z,1.41
2023-01-22T06:22:13.335Z,1.40
2023-01-22T06:25:00.322Z,1.44
2023-01-22T06:27:41.344Z,1.36
2023-01-22T06:30:08.911Z,1.37
2023-01-22T06:32:35.857Z,1.41
2023-01-22T06:35:02.590Z,1.45
2023-01-22T06:37:29.570Z,1.51
2023-01-22T06:39:57.118Z,1.48
2023-01-22T06:42:31.423Z,1.45
2023-01-22T06:44:58.173Z,1.41
2023-01-22T06:47:29.812Z,1.38
2023-01-22T06:49:56.682Z,1.45
2023-01-22T06:52:23.485Z,1.53
2023-01-22T06:54:50.201Z,1.57
2023-01-22T06:57:16.970Z,1.56
2023-01-22T06:59:44.193Z,1.58
2023-01-22T07:02:20.111Z,1.56
2023-01-22T07:04:47.155Z,1.55
2023-01-22T07:07:14.141Z,1.51
2023-01-22T07:09:41.155Z,1.51
2023-01-22T07:12:08.260Z,1.39
2023-01-22T07:14:37.565Z,1.48
2023-01-22T07:17:04.640Z,1.55
2023-01-22T07:19:31.417Z,1.61
2023-01-22T07:21:58.133Z,1.72
2023-01-22T07:24:24.866Z,1.62
2023-01-22T07:26:51.585Z,1.62
2023-01-22T07:29:18.284Z,1.61
2023-01-22T07:31:49.378Z,1.61
2023-01-22T07:34:16.627Z,1.66
2023-01-22T07:36:43.315Z,1.69
2023-01-22T07:39:10.016Z,1.63
2023-01-22T07:41:36.772Z,1.64
2023-01-22T07:44:11.859Z,1.65
2023-01-22T07:46:41.652Z,1.65
2023-01-22T07:49:08.490Z,1.64
2023-01-22T07:51:35.271Z,1.72
2023-01-22T07:54:01.983Z,1.78
2023-01-22T07:56:28.792Z,1.86
2023-01-22T07:58:55.529Z,1.81
2023-01-22T08:01:22.240Z,1.84
2023-01-22T08:03:48.944Z,1.85
2023-01-22T08:06:20.790Z,1.92
2023-01-22T08:08:48.170Z,1.93
2023-01-22T08:11:15.091Z,1.98
2023-01-22T08:13:44.556Z,1.95
2023-01-22T08:16:11.467Z,1.92
2023-01-22T08:18:38.335Z,1.95
2023-01-22T08:21:05.371Z,1.88
2023-01-22T08:23:32.434Z,1.71
2023-01-22T08:26:00.648Z,1.71
2023-01-22T08:28:27.905Z,1.84
2023-01-22T08:30:59.153Z,1.89
2023-01-22T08:33:26.487Z,1.87
2023-01-22T08:35:53.234Z,1.97
2023-01-22T08:38:20.097Z,2.02
2023-01-22T08:40:52.768Z,2.11
2023-01-22T08:43:19.927Z,2.19
2023-01-22T08:45:49.519Z,2.17
2023-01-22T08:48:16.739Z,2.22
2023-01-22T08:50:43.524Z,2.30
2023-01-22T08:53:10.620Z,2.37
2023-01-22T08:55:37.521Z,2.34
2023-01-22T08:58:04.321Z,2.29
2023-01-22T09:00:31.112Z,2.37
2023-01-22T09:02:59.850Z,2.43
2023-01-22T09:05:27.721Z,2.46
2023-01-22T09:07:54.518Z,2.51
2023-01-22T09:10:22.067Z,2.51
2023-01-22T09:12:49.043Z,2.44
2023-01-22T09:15:15.828Z,2.35
2023-01-22T09:17:42.884Z,2.33
2023-01-22T09:20:10.227Z,2.45
2023-01-22T09:22:37.012Z,2.61
2023-01-22T09:25:05.096Z,2.64
2023-01-22T09:27:32.226Z,2.63
2023-01-22T09:30:00.218Z,2.59
2023-01-22T09:32:27.292Z,2.60
2023-01-22T09:34:54.101Z,2.68
2023-01-22T09:37:20.989Z,2.77
2023-01-22T09:39:50.906Z,2.75
2023-01-22T09:42:38.220Z,2.63
2023-01-22T09:45:11.061Z,2.61
2023-01-22T09:47:50.117Z,2.56
2023-01-22T09:50:29.004Z,2.44
2023-01-22T09:52:59.283Z,2.61
2023-01-22T09:55:30.858Z,2.56
2023-01-22T09:58:01.759Z,2.63
2023-01-22T10:00:39.991Z,2.57
2023-01-22T10:03:23.651Z,2.60
2023-01-22T10:05:56.559Z,2.44
2023-01-22T10:08:58.886Z,2.80
2023-01-22T10:11:26.103Z,3.05
2023-01-22T10:13:57.175Z,3.05
2023-01-22T10:16:27.742Z,3.14
2023-01-22T10:19:05.380Z,3.20
2023-01-22T10:21:37.483Z,3.07
2023-01-22T10:24:04.306Z,3.03
2023-01-22T10:26:48.161Z,2.90
2023-01-22T10:29:34.516Z,3.10
2023-01-22T10:32:22.807Z,3.25
2023-01-22T10:35:07.543Z,3.32
2023-01-22T10:37:49.794Z,3.27
2023-01-22T10:40:31.404Z,3.35
2023-01-22T10:43:17.875Z,3.33
2023-01-22T10:46:01.753Z,3.44
2023-01-22T10:48:28.677Z,3.54
2023-01-22T10:51:10.544Z,3.57
2023-01-22T10:53:39.643Z,3.67
2023-01-22T10:56:12.462Z,3.56
2023-01-22T10:58:45.349Z,3.32
2023-01-22T11:01:32.524Z,3.55
2023-01-22T11:03:59.425Z,3.67
2023-01-22T11:06:39.483Z,3.63
2023-01-22T11:09:15.816Z,3.71
2023-01-22T11:11:48.992Z,3.80
2023-01-22T11:14:32.264Z,3.77
2023-01-22T11:17:21.084Z,3.84
2023-01-22T11:20:00.342Z,3.81
2023-01-22T11:22:37.371Z,3.73
2023-01-22T11:25:08.109Z,3.74
2023-01-22T11:28:17.820Z,3.67
2023-01-22T11:30:53.930Z,3.78
2023-01-22T11:33:40.868Z,3.72
2023-01-22T11:36:27.376Z,3.69
2023-01-22T11:39:23.269Z,3.45
2023-01-22T11:42:02.799Z,3.56
2023-01-22T11:44:55.851Z,3.58
2023-01-22T11:47:55.597Z,3.56
2023-01-22T11:50:41.249Z,3.67
2023-01-22T11:53:39.693Z,3.59
2023-01-22T11:56:11.252Z,3.76
2023-01-22T11:58:45.482Z,3.72
2023-01-22T12:01:20.695Z,3.79
2023-01-22T12:04:17.191Z,3.66
2023-01-22T12:06:58.810Z,3.72
2023-01-22T12:09:35.166Z,3.75
2023-01-22T12:12:23.267Z,3.75
2023-01-22T12:15:00.154Z,3.64
2023-01-22T12:17:52.443Z,3.65
2023-01-22T12:20:56.166Z,3.70
2023-01-22T12:23:34.533Z,3.83
2023-01-22T12:26:11.568Z,3.89
2023-01-22T12:28:54.502Z,3.83
2023-01-22T12:31:29.828Z,3.86
2023-01-22T12:34:03.807Z,3.85
2023-01-22T12:36:33.055Z,3.67
2023-01-22T12:39:30.808Z,3.45
2023-01-22T12:42:16.595Z,3.43
2023-01-22T12:44:55.860Z,3.51
2023-01-22T12:47:34.135Z,3.51
2023-01-22T12:50:02.903Z,3.64
2023-01-22T12:52:37.869Z,3.70
2023-01-22T12:55:22.030Z,3.55
2023-01-22T12:57:49.239Z,3.85
2023-01-22T13:00:34.875Z,3.90
2023-01-22T13:03:31.343Z,3.98
2023-01-22T13:06:00.233Z,3.94
2023-01-22T13:08:44.830Z,3.90
2023-01-22T13:11:35.745Z,3.98
2023-01-22T13:14:29.206Z,3.88
2023-01-22T13:17:03.564Z,4.03
2023-01-22T13:19:48.512Z,3.92
2023-01-22T13:22:20.125Z,3.87
2023-01-22T13:24:55.191Z,3.85
2023-01-22T13:27:36.416Z,3.74
2023-01-22T13:30:17.613Z,3.74
2023-01-22T13:32:47.227Z,3.82
2023-01-22T13:35:16.823Z,3.73
2023-01-22T13:37:51.835Z,3.72
2023-01-22T13:40:21.675Z,3.68
2023-01-22T13:42:48.986Z,3.68
2023-01-22T13:45:28.075Z,3.62
2023-01-22T13:48:00.575Z,3.54
2023-01-22T13:50:32.089Z,3.50
2023-01-22T13:53:01.195Z,3.45
2023-01-22T13:55:29.534Z,3.47
2023-01-22T13:57:58.734Z,3.51
2023-01-22T14:00:34.379Z,3.55
2023-01-22T14:03:01.924Z,3.63
2023-01-22T14:05:33.333Z,3.64
2023-01-22T14:08:07.072Z,3.51
2023-01-22T14:10:34.204Z,3.45
2023-01-22T14:13:03.086Z,3.48
2023-01-22T14:15:30.457Z,3.46
2023-01-22T14:18:29.487Z,3.24
2023-01-22T14:20:56.229Z,3.31
2023-01-22T14:23:23.040Z,3.40
2023-01-22T14:25:52.651Z,3.33
2023-01-22T14:28:19.965Z,3.37
2023-01-22T14:30:47.566Z,3.32
2023-01-22T14:33:19.076Z,3.25
2023-01-22T14:35:45.875Z,3.25
2023-01-22T14:38:12.692Z,3.27
2023-01-22T14:40:40.335Z,3.23
2023-01-22T14:43:07.193Z,3.23
2023-01-22T14:45:34.024Z,3.26
2023-01-22T14:48:00.950Z,3.26
2023-01-22T14:50:27.976Z,3.18
2023-01-22T14:52:54.770Z,3.15
2023-01-22T14:55:21.908Z,2.93
2023-01-22T14:57:49.043Z,2.94
2023-01-22T15:00:18.432Z,2.72
2023-01-22T15:02:45.453Z,2.65
2023-01-22T15:05:12.837Z,2.78
2023-01-22T15:07:39.933Z,2.76
2023-01-22T15:10:08.331Z,2.80
2023-01-22T15:12:35.159Z,2.87
2023-01-22T15:15:01.934Z,2.90
2023-01-22T15:17:30.292Z,3.01
2023-01-22T15:19:57.261Z,3.09
2023-01-22T15:22:24.143Z,3.08
2023-01-22T15:24:50.900Z,3.04
2023-01-22T15:27:18.909Z,3.11
2023-01-22T15:29:46.482Z,3.17
2023-01-22T15:32:13.621Z,3.13
2023-01-22T15:34:40.566Z,3.05
2023-01-22T15:37:07.363Z,2.99
2023-01-22T15:39:34.216Z,2.98
2023-01-22T15:42:00.971Z,2.94
2023-01-22T15:44:27.766Z,2.93
2023-01-22T15:46:55.345Z,2.88
2023-01-22T15:49:22.035Z,2.90
2023-01-22T15:51:49.157Z,2.91
2023-01-22T15:54:16.541Z,2.91
2023-01-22T15:56:44.256Z,2.97
2023-01-22T15:59:12.417Z,2.97
2023-01-22T16:01:39.686Z,2.94
2023-01-22T16:04:07.278Z,2.99
2023-01-22T16:06:35.091Z,3.04
2023-01-22T16:09:03.778Z,3.01
2023-01-22T16:11:31.057Z,3.04
2023-01-22T16:14:00.736Z,3.09
2023-01-22T16:16:33.921Z,3.10
2023-01-22T16:19:02.923Z,3.17
2023-01-22T16:21:30.217Z,3.19
2023-01-22T16:23:58.995Z,3.22
2023-01-22T16:26:29.049Z,3.25
2023-01-22T16:28:57.619Z,3.17
2023-01-22T16:31:26.962Z,3.12
2023-01-22T16:33:59.924Z,3.13
2023-01-22T16:36:32.630Z,3.15
2023-01-22T16:39:00.451Z,3.20
2023-01-22T16:41:35.054Z,3.21
2023-01-22T16:44:11.092Z,3.16
2023-01-22T16:46:40.833Z,3.21
2023-01-22T16:49:14.753Z,3.18
2023-01-22T16:51:53.281Z,3.22
2023-01-22T16:54:24.347Z,3.25
2023-01-22T16:56:51.479Z,3.28
2023-01-22T16:59:18.294Z,3.32
2023-01-22T17:01:45.350Z,3.32
2023-01-22T17:04:12.243Z,3.36
2023-01-22T17:06:45.385Z,3.37
2023-01-22T17:09:18.425Z,3.36
2023-01-22T17:11:47.078Z,3.41
2023-01-22T17:14:18.164Z,3.44
2023-01-22T17:16:45.269Z,3.48
2023-01-22T17:19:12.123Z,3.51
2023-01-22T17:21:38.841Z,3.49
2023-01-22T17:24:05.865Z,3.42
2023-01-22T17:26:32.674Z,3.43
2023-01-22T17:28:59.546Z,3.34
2023-01-22T17:31:27.930Z,3.25
2023-01-22T17:33:55.654Z,3.15
2023-01-22T17:36:24.311Z,3.10
2023-01-22T17:38:52.249Z,3.19
2023-01-22T17:41:21.367Z,3.22
2023-01-22T17:43:52.063Z,3.23
2023-01-22T17:46:21.637Z,3.18
2023-01-22T17:48:49.456Z,3.25
2023-01-22T17:51:19.841Z,3.33
2023-01-22T17:53:48.236Z,3.40
2023-01-22T17:56:20.745Z,3.33
2023-01-22T17:58:50.471Z,3.33
2023-01-22T18:01:18.957Z,3.38
2023-01-22T18:03:46.620Z,3.43
2023-01-22T18:06:14.205Z,3.49
2023-01-22T18:08:42.448Z,3.48
2023-01-22T18:11:11.801Z,3.48
2023-01-22T18:13:39.491Z,3.49
2023-01-22T18:16:08.130Z,3.51
2023-01-22T18:18:35.674Z,3.60
2023-01-22T18:21:02.591Z,3.58
2023-01-22T18:23:29.492Z,3.56
2023-01-22T18:25:58.012Z,3.57
2023-01-22T18:28:26.728Z,3.60
2023-01-22T18:30:54.471Z,3.63
2023-01-22T18:33:21.782Z,3.62
2023-01-22T18:35:50.835Z,3.58
2023-01-22T18:38:21.035Z,3.63
2023-01-22T18:40:48.772Z,3.57
2023-01-22T18:43:17.584Z,3.62
2023-01-22T18:45:44.376Z,3.63
2023-01-22T18:48:15.989Z,3.61
2023-01-22T18:50:43.436Z,3.58
2023-01-22T18:53:10.246Z,3.55
2023-01-22T18:55:37.202Z,3.62
2023-01-22T18:58:27.464Z,3.63
2023-01-22T19:01:21.581Z,3.61
2023-01-22T19:03:51.519Z,3.66
2023-01-22T19:06:22.913Z,3.63
2023-01-22T19:09:03.589Z,3.58
2023-01-22T19:11:36.806Z,3.47
2023-01-22T19:14:06.455Z,3.50
2023-01-22T19:16:33.499Z,3.58
2023-01-22T19:19:04.284Z,3.62
2023-01-22T19:21:31.719Z,3.68
2023-01-22T19:24:00.707Z,3.72
2023-01-22T19:26:31.229Z,3.77
2023-01-22T19:29:01.065Z,3.79
2023-01-22T19:31:32.394Z,3.81
2023-01-22T19:34:00.539Z,3.84
2023-01-22T19:36:30.232Z,3.86
2023-01-22T19:38:59.580Z,3.85
2023-01-22T19:41:27.354Z,3.85
2023-01-22T19:43:56.125Z,3.88
2023-01-22T19:46:23.756Z,3.91
2023-01-22T19:48:50.639Z,3.88
2023-01-22T19:51:19.530Z,3.92
2023-01-22T19:53:48.962Z,3.97
2023-01-22T19:56:21.147Z,4.01
2023-01-22T19:58:53.875Z,3.99
2023-01-22T20:01:23.028Z,4.00
2023-01-22T20:03:50.616Z,4.04
2023-01-22T20:06:18.203Z,3.99
2023-01-22T20:08:46.076Z,4.00
2023-01-22T20:11:14.883Z,4.05
2023-01-22T20:13:43.444Z,4.11
2023-01-22T20:16:26.389Z,4.08
2023-01-22T20:18:54.571Z,4.12
2023-01-22T20:21:23.243Z,4.10
2023-01-22T20:23:50.979Z,3.99
2023-01-22T20:26:20.299Z,3.93
2023-01-22T20:28:48.080Z,3.96
2023-01-22T20:31:17.899Z,3.86
2023-01-22T20:33:44.884Z,3.74
2023-01-22T20:36:15.302Z,3.79
2023-01-22T20:38:43.513Z,3.84
2023-01-22T20:41:10.254Z,3.81
2023-01-22T20:43:39.291Z,3.69
2023-01-22T20:46:13.931Z,3.62
2023-01-22T20:48:42.427Z,3.60
2023-01-22T20:51:21.507Z,3.62
2023-01-22T20:53:49.842Z,3.75
2023-01-22T20:56:20.989Z,3.83
2023-01-22T20:58:48.278Z,3.92
2023-01-22T21:01:19.131Z,3.99
2023-01-22T21:03:47.735Z,4.08
2023-01-22T21:06:16.722Z,4.13
2023-01-22T21:08:44.236Z,4.12
2023-01-22T21:11:14.045Z,4.11
2023-01-22T21:13:40.929Z,4.19
2023-01-22T21:16:16.007Z,4.19
2023-01-22T21:18:44.753Z,4.19
2023-01-22T21:21:15.134Z,4.10
2023-01-22T21:23:41.961Z,4.12
2023-01-22T21:26:12.134Z,4.11
2023-01-22T21:28:40.180Z,4.15
2023-01-22T21:31:11.599Z,4.08
2023-01-22T21:33:39.137Z,4.02
2023-01-22T21:36:07.705Z,3.99
2023-01-22T21:38:35.019Z,3.99
2023-01-22T21:41:14.043Z,3.92
2023-01-22T21:44:01.547Z,3.96
2023-01-22T21:46:31.202Z,3.81
2023-01-22T21:49:02.116Z,3.71
2023-01-22T21:51:31.009Z,3.72
2023-01-22T21:54:02.189Z,3.80
2023-01-22T21:56:28.884Z,3.67
2023-01-22T21:58:56.666Z,3.60
2023-01-22T22:01:23.594Z,3.58
2023-01-22T22:03:50.401Z,3.63
2023-01-22T22:06:19.918Z,3.63
2023-01-22T22:08:46.690Z,3.65
2023-01-22T22:11:14.177Z,3.65
2023-01-22T22:13:42.921Z,3.60
2023-01-22T22:16:11.086Z,3.62
2023-01-22T22:18:41.463Z,3.70
2023-01-22T22:21:10.347Z,3.73
2023-01-22T22:23:37.236Z,3.75
2023-01-22T22:26:05.917Z,3.82
2023-01-22T22:28:33.771Z,3.90
2023-01-22T22:31:12.192Z,3.87
2023-01-22T22:33:47.986Z,3.86
2023-01-22T22:36:22.872Z,3.92
2023-01-22T22:38:51.280Z,3.96
2023-01-22T22:41:26.950Z,3.98
2023-01-22T22:43:55.172Z,4.01
2023-01-22T22:46:26.123Z,3.95
2023-01-22T22:48:54.868Z,4.01
2023-01-22T22:51:29.507Z,4.05
2023-01-22T22:54:01.854Z,4.03
2023-01-22T22:56:29.393Z,4.07
2023-01-22T22:58:57.797Z,4.12
2023-01-22T23:01:25.623Z,4.08
2023-01-22T23:03:53.704Z,4.02
2023-01-22T23:06:26.275Z,4.03
2023-01-22T23:09:08.216Z,3.95
2023-01-22T23:11:36.525Z,3.97
2023-01-22T23:14:03.945Z,3.99
2023-01-22T23:16:33.102Z,3.98
2023-01-22T23:19:02.825Z,4.00
2023-01-22T23:21:30.075Z,4.05
2023-01-22T23:23:57.313Z,4.04
2023-01-22T23:26:30.016Z,4.01
2023-01-22T23:28:59.033Z,4.02
2023-01-22T23:31:27.263Z,3.99
2023-01-22T23:33:55.539Z,3.98
2023-01-22T23:36:22.688Z,3.97
2023-01-22T23:38:50.090Z,3.97
2023-01-22T23:41:18.597Z,3.93
2023-01-22T23:43:45.961Z,3.88
2023-01-22T23:46:25.166Z,3.79
2023-01-22T23:48:54.280Z,3.87
2023-01-22T23:51:21.803Z,3.90
2023-01-22T23:53:55.273Z,3.93
2023-01-22T23:56:24.033Z,3.63
2023-01-22T23:58:54.110Z,3.81
